sensor_id;sensor_type;location;lat;lon;timestamp;temperature;humidity
20125;DHT22;10223;50.862;4.360;2023-05-23T00:01:59;14.70;99.90
20125;DHT22;10223;50.862;4.360;2023-05-23T00:04:26;14.70;99.90
20125;DHT22;10223;50.862;4.360;2023-05-23T00:06:53;14.70;99.90
20125;DHT22;10223;50.862;4.360;2023-05-23T00:09:21;14.80;99.90
20125;DHT22;10223;50.862;4.360;2023-05-23T00:11:47;14.90;99.90
20125;DHT22;10223;50.862;4.360;2023-05-23T00:14:15;14.80;99.90
20125;DHT22;10223;50.862;4.360;2023-05-23T00:16:43;14.80;99.90
20125;DHT22;10223;50.862;4.360;2023-05-23T00:19:15;14.70;99.90
20125;DHT22;10223;50.862;4.360;2023-05-23T00:21:43;14.70;99.90
20125;DHT22;10223;50.862;4.360;2023-05-23T00:24:13;14.80;99.90
20125;DHT22;10223;50.862;4.360;2023-05-23T00:26:43;14.80;99.90
20125;DHT22;10223;50.862;4.360;2023-05-23T00:29:10;14.80;99.90
20125;DHT22;10223;50.862;4.360;2023-05-23T00:31:40;14.80;99.90
20125;DHT22;10223;50.862;4.360;2023-05-23T00:34:07;14.70;99.90
20125;DHT22;10223;50.862;4.360;2023-05-23T00:36:35;14.80;99.90
20125;DHT22;10223;50.862;4.360;2023-05-23T00:39:02;14.80;99.90
20125;DHT22;10223;50.862;4.360;2023-05-23T00:41:29;14.80;99.90
20125;DHT22;10223;50.862;4.360;2023-05-23T00:43:56;14.70;99.90
20125;DHT22;10223;50.862;4.360;2023-05-23T00:46:24;14.70;99.90
20125;DHT22;10223;50.862;4.360;2023-05-23T00:48:51;14.80;99.90
20125;DHT22;10223;50.862;4.360;2023-05-23T00:51:20;14.90;99.90
20125;DHT22;10223;50.862;4.360;2023-05-23T00:53:48;14.90;99.90
20125;DHT22;10223;50.862;4.360;2023-05-23T00:56:16;15.00;99.90
20125;DHT22;10223;50.862;4.360;2023-05-23T00:58:44;14.90;99.90
20125;DHT22;10223;50.862;4.360;2023-05-23T01:01:12;14.90;99.90
20125;DHT22;10223;50.862;4.360;2023-05-23T01:03:39;14.90;99.90
20125;DHT22;10223;50.862;4.360;2023-05-23T01:06:06;15.00;99.90
20125;DHT22;10223;50.862;4.360;2023-05-23T01:08:34;14.90;99.90
20125;DHT22;10223;50.862;4.360;2023-05-23T01:11:07;14.90;99.90
20125;DHT22;10223;50.862;4.360;2023-05-23T01:13:40;14.90;99.90
20125;DHT22;10223;50.862;4.360;2023-05-23T01:16:13;15.00;99.90
20125;DHT22;10223;50.862;4.360;2023-05-23T01:18:47;14.90;99.90
20125;DHT22;10223;50.862;4.360;2023-05-23T01:21:17;14.90;99.90
20125;DHT22;10223;50.862;4.360;2023-05-23T01:24:14;14.80;99.90
20125;DHT22;10223;50.862;4.360;2023-05-23T01:27:04;14.90;99.90
20125;DHT22;10223;50.862;4.360;2023-05-23T01:29:39;14.90;99.90
20125;DHT22;10223;50.862;4.360;2023-05-23T01:32:10;14.90;99.90
20125;DHT22;10223;50.862;4.360;2023-05-23T01:34:40;15.00;99.90
20125;DHT22;10223;50.862;4.360;2023-05-23T01:37:08;15.00;99.90
20125;DHT22;10223;50.862;4.360;2023-05-23T01:39:36;15.20;99.90
20125;DHT22;10223;50.862;4.360;2023-05-23T01:42:03;15.10;99.90
20125;DHT22;10223;50.862;4.360;2023-05-23T01:44:32;15.10;99.90
20125;DHT22;10223;50.862;4.360;2023-05-23T01:47:02;15.00;99.90
20125;DHT22;10223;50.862;4.360;2023-05-23T01:49:31;15.00;99.90
20125;DHT22;10223;50.862;4.360;2023-05-23T01:51:59;15.00;99.90
20125;DHT22;10223;50.862;4.360;2023-05-23T01:54:28;15.10;99.90
20125;DHT22;10223;50.862;4.360;2023-05-23T01:57:00;15.20;99.90
20125;DHT22;10223;50.862;4.360;2023-05-23T01:59:27;15.20;99.90
20125;DHT22;10223;50.862;4.360;2023-05-23T02:01:54;15.30;99.90
20125;DHT22;10223;50.862;4.360;2023-05-23T02:04:23;15.30;99.90
20125;DHT22;10223;50.862;4.360;2023-05-23T02:06:50;15.30;99.90
20125;DHT22;10223;50.862;4.360;2023-05-23T02:09:17;15.40;99.90
20125;DHT22;10223;50.862;4.360;2023-05-23T02:11:44;15.30;99.90
20125;DHT22;10223;50.862;4.360;2023-05-23T02:14:11;15.40;99.90
20125;DHT22;10223;50.862;4.360;2023-05-23T02:16:38;15.30;99.90
20125;DHT22;10223;50.862;4.360;2023-05-23T02:19:05;15.30;99.90
20125;DHT22;10223;50.862;4.360;2023-05-23T02:21:33;15.30;99.90
20125;DHT22;10223;50.862;4.360;2023-05-23T02:24:00;15.20;99.90
20125;DHT22;10223;50.862;4.360;2023-05-23T02:26:29;15.20;99.90
20125;DHT22;10223;50.862;4.360;2023-05-23T02:28:56;15.20;99.90
20125;DHT22;10223;50.862;4.360;2023-05-23T02:31:23;15.30;99.90
20125;DHT22;10223;50.862;4.360;2023-05-23T02:33:50;15.20;99.90
20125;DHT22;10223;50.862;4.360;2023-05-23T02:36:16;15.20;99.90
20125;DHT22;10223;50.862;4.360;2023-05-23T02:38:45;15.00;99.90
20125;DHT22;10223;50.862;4.360;2023-05-23T02:41:12;15.00;99.90
20125;DHT22;10223;50.862;4.360;2023-05-23T02:43:39;15.10;99.90
20125;DHT22;10223;50.862;4.360;2023-05-23T02:46:06;15.20;99.90
20125;DHT22;10223;50.862;4.360;2023-05-23T02:48:32;15.20;99.90
20125;DHT22;10223;50.862;4.360;2023-05-23T02:50:59;15.10;99.90
20125;DHT22;10223;50.862;4.360;2023-05-23T02:53:26;14.90;99.90
20125;DHT22;10223;50.862;4.360;2023-05-23T02:55:55;15.00;99.90
20125;DHT22;10223;50.862;4.360;2023-05-23T02:58:22;15.00;99.90
20125;DHT22;10223;50.862;4.360;2023-05-23T03:00:49;15.00;99.90
20125;DHT22;10223;50.862;4.360;2023-05-23T03:03:16;15.00;99.90
20125;DHT22;10223;50.862;4.360;2023-05-23T03:05:43;15.00;99.90
20125;DHT22;10223;50.862;4.360;2023-05-23T03:08:11;14.90;99.90
20125;DHT22;10223;50.862;4.360;2023-05-23T03:10:38;14.80;99.90
20125;DHT22;10223;50.862;4.360;2023-05-23T03:13:06;14.80;99.90
20125;DHT22;10223;50.862;4.360;2023-05-23T03:15:33;14.80;99.90
20125;DHT22;10223;50.862;4.360;2023-05-23T03:18:00;14.80;99.90
20125;DHT22;10223;50.862;4.360;2023-05-23T03:20:27;14.70;99.90
20125;DHT22;10223;50.862;4.360;2023-05-23T03:22:53;14.70;99.90
20125;DHT22;10223;50.862;4.360;2023-05-23T03:25:20;14.60;99.90
20125;DHT22;10223;50.862;4.360;2023-05-23T03:27:47;14.70;99.90
20125;DHT22;10223;50.862;4.360;2023-05-23T03:30:16;14.60;99.90
20125;DHT22;10223;50.862;4.360;2023-05-23T03:32:43;14.60;99.90
20125;DHT22;10223;50.862;4.360;2023-05-23T03:35:14;14.60;99.90
20125;DHT22;10223;50.862;4.360;2023-05-23T03:37:41;14.60;99.90
20125;DHT22;10223;50.862;4.360;2023-05-23T03:40:09;14.50;99.90
20125;DHT22;10223;50.862;4.360;2023-05-23T03:42:37;14.50;99.90
20125;DHT22;10223;50.862;4.360;2023-05-23T03:45:05;14.50;99.90
20125;DHT22;10223;50.862;4.360;2023-05-23T03:47:35;14.50;99.90
20125;DHT22;10223;50.862;4.360;2023-05-23T03:50:03;14.50;99.90
20125;DHT22;10223;50.862;4.360;2023-05-23T03:52:30;14.50;99.90
20125;DHT22;10223;50.862;4.360;2023-05-23T03:54:57;14.50;99.90
20125;DHT22;10223;50.862;4.360;2023-05-23T03:57:24;14.40;99.90
20125;DHT22;10223;50.862;4.360;2023-05-23T03:59:51;14.50;99.90
20125;DHT22;10223;50.862;4.360;2023-05-23T04:02:17;14.50;99.90
20125;DHT22;10223;50.862;4.360;2023-05-23T04:04:46;14.50;99.90
20125;DHT22;10223;50.862;4.360;2023-05-23T04:07:13;14.50;99.90
20125;DHT22;10223;50.862;4.360;2023-05-23T04:09:41;14.50;99.90
20125;DHT22;10223;50.862;4.360;2023-05-23T04:12:08;14.60;99.90
20125;DHT22;10223;50.862;4.360;2023-05-23T04:14:36;14.50;99.90
20125;DHT22;10223;50.862;4.360;2023-05-23T04:17:04;14.50;99.90
20125;DHT22;10223;50.862;4.360;2023-05-23T04:19:33;14.50;99.90
20125;DHT22;10223;50.862;4.360;2023-05-23T04:22:02;14.40;99.90
20125;DHT22;10223;50.862;4.360;2023-05-23T04:24:29;14.20;99.90
20125;DHT22;10223;50.862;4.360;2023-05-23T04:26:55;14.30;99.90
20125;DHT22;10223;50.862;4.360;2023-05-23T04:29:23;14.30;99.90
20125;DHT22;10223;50.862;4.360;2023-05-23T04:31:51;14.20;99.90
20125;DHT22;10223;50.862;4.360;2023-05-23T04:34:19;14.20;99.90
20125;DHT22;10223;50.862;4.360;2023-05-23T04:36:46;14.20;99.90
20125;DHT22;10223;50.862;4.360;2023-05-23T04:39:15;14.20;99.90
20125;DHT22;10223;50.862;4.360;2023-05-23T04:41:42;14.20;99.90
20125;DHT22;10223;50.862;4.360;2023-05-23T04:44:09;14.30;99.90
20125;DHT22;10223;50.862;4.360;2023-05-23T04:46:36;14.30;99.90
20125;DHT22;10223;50.862;4.360;2023-05-23T04:49:06;14.40;99.90
20125;DHT22;10223;50.862;4.360;2023-05-23T04:51:33;14.60;99.90
20125;DHT22;10223;50.862;4.360;2023-05-23T04:54:00;14.70;99.90
20125;DHT22;10223;50.862;4.360;2023-05-23T04:56:29;14.80;99.90
20125;DHT22;10223;50.862;4.360;2023-05-23T04:58:56;14.70;99.90
20125;DHT22;10223;50.862;4.360;2023-05-23T05:01:23;14.80;99.90
20125;DHT22;10223;50.862;4.360;2023-05-23T05:03:50;14.80;99.90
20125;DHT22;10223;50.862;4.360;2023-05-23T05:06:17;14.90;99.90
20125;DHT22;10223;50.862;4.360;2023-05-23T05:08:45;14.90;99.90
20125;DHT22;10223;50.862;4.360;2023-05-23T05:11:12;15.00;99.90
20125;DHT22;10223;50.862;4.360;2023-05-23T05:13:41;15.00;99.90
20125;DHT22;10223;50.862;4.360;2023-05-23T05:16:07;15.00;99.90
20125;DHT22;10223;50.862;4.360;2023-05-23T05:18:34;15.00;99.90
20125;DHT22;10223;50.862;4.360;2023-05-23T05:21:02;14.90;99.90
20125;DHT22;10223;50.862;4.360;2023-05-23T05:23:30;14.90;99.90
20125;DHT22;10223;50.862;4.360;2023-05-23T05:25:58;14.90;99.90
20125;DHT22;10223;50.862;4.360;2023-05-23T05:28:25;14.90;99.90
20125;DHT22;10223;50.862;4.360;2023-05-23T05:30:53;14.80;99.90
20125;DHT22;10223;50.862;4.360;2023-05-23T05:33:23;14.80;99.90
20125;DHT22;10223;50.862;4.360;2023-05-23T05:35:50;14.80;99.90
20125;DHT22;10223;50.862;4.360;2023-05-23T05:38:17;14.70;99.90
20125;DHT22;10223;50.862;4.360;2023-05-23T05:40:44;14.80;99.90
20125;DHT22;10223;50.862;4.360;2023-05-23T05:43:15;14.80;99.90
20125;DHT22;10223;50.862;4.360;2023-05-23T05:45:42;14.90;99.90
20125;DHT22;10223;50.862;4.360;2023-05-23T05:48:11;15.00;99.90
20125;DHT22;10223;50.862;4.360;2023-05-23T05:50:38;14.90;99.90
20125;DHT22;10223;50.862;4.360;2023-05-23T05:53:05;14.90;99.90
20125;DHT22;10223;50.862;4.360;2023-05-23T05:55:33;14.90;99.90
20125;DHT22;10223;50.862;4.360;2023-05-23T05:58:02;14.80;99.90
20125;DHT22;10223;50.862;4.360;2023-05-23T06:00:31;14.70;99.90
20125;DHT22;10223;50.862;4.360;2023-05-23T06:03:06;14.80;99.90
20125;DHT22;10223;50.862;4.360;2023-05-23T06:05:35;14.80;99.90
20125;DHT22;10223;50.862;4.360;2023-05-23T06:08:03;14.80;99.90
20125;DHT22;10223;50.862;4.360;2023-05-23T06:10:33;14.90;99.90
20125;DHT22;10223;50.862;4.360;2023-05-23T06:13:00;14.90;99.90
20125;DHT22;10223;50.862;4.360;2023-05-23T06:15:29;14.80;99.90
20125;DHT22;10223;50.862;4.360;2023-05-23T06:17:57;14.70;99.90
20125;DHT22;10223;50.862;4.360;2023-05-23T06:20:24;14.60;99.90
20125;DHT22;10223;50.862;4.360;2023-05-23T06:22:55;14.50;99.90
20125;DHT22;10223;50.862;4.360;2023-05-23T06:25:24;14.40;99.90
20125;DHT22;10223;50.862;4.360;2023-05-23T06:27:51;14.40;99.90
20125;DHT22;10223;50.862;4.360;2023-05-23T06:30:21;14.30;99.90
20125;DHT22;10223;50.862;4.360;2023-05-23T06:32:48;14.40;99.90
20125;DHT22;10223;50.862;4.360;2023-05-23T06:35:18;14.40;99.90
20125;DHT22;10223;50.862;4.360;2023-05-23T06:37:45;14.40;99.90
20125;DHT22;10223;50.862;4.360;2023-05-23T06:40:14;14.30;99.90
20125;DHT22;10223;50.862;4.360;2023-05-23T06:42:41;14.20;99.90
20125;DHT22;10223;50.862;4.360;2023-05-23T06:45:09;14.20;99.90
20125;DHT22;10223;50.862;4.360;2023-05-23T06:47:36;14.30;99.90
20125;DHT22;10223;50.862;4.360;2023-05-23T06:50:04;14.40;99.90
20125;DHT22;10223;50.862;4.360;2023-05-23T06:52:31;14.40;99.90
20125;DHT22;10223;50.862;4.360;2023-05-23T06:54:58;14.40;99.90
20125;DHT22;10223;50.862;4.360;2023-05-23T06:57:26;14.40;99.90
20125;DHT22;10223;50.862;4.360;2023-05-23T06:59:53;14.60;99.90
20125;DHT22;10223;50.862;4.360;2023-05-23T07:02:21;14.60;99.90
20125;DHT22;10223;50.862;4.360;2023-05-23T07:04:48;14.70;99.90
20125;DHT22;10223;50.862;4.360;2023-05-23T07:07:15;14.80;99.90
20125;DHT22;10223;50.862;4.360;2023-05-23T07:09:42;14.70;99.90
20125;DHT22;10223;50.862;4.360;2023-05-23T07:12:09;14.80;99.90
20125;DHT22;10223;50.862;4.360;2023-05-23T07:14:38;14.70;99.90
20125;DHT22;10223;50.862;4.360;2023-05-23T07:17:05;14.60;99.90
20125;DHT22;10223;50.862;4.360;2023-05-23T07:19:32;14.60;99.90
20125;DHT22;10223;50.862;4.360;2023-05-23T07:21:59;14.70;99.90
20125;DHT22;10223;50.862;4.360;2023-05-23T07:24:26;14.80;99.90
20125;DHT22;10223;50.862;4.360;2023-05-23T07:26:53;15.10;99.90
20125;DHT22;10223;50.862;4.360;2023-05-23T07:29:19;15.20;99.90
20125;DHT22;10223;50.862;4.360;2023-05-23T07:31:48;15.10;99.90
20125;DHT22;10223;50.862;4.360;2023-05-23T07:34:15;15.10;99.90
20125;DHT22;10223;50.862;4.360;2023-05-23T07:36:42;15.20;99.90
20125;DHT22;10223;50.862;4.360;2023-05-23T07:39:09;15.40;99.90
20125;DHT22;10223;50.862;4.360;2023-05-23T07:41:36;15.70;99.90
20125;DHT22;10223;50.862;4.360;2023-05-23T07:44:03;15.90;99.90
20125;DHT22;10223;50.862;4.360;2023-05-23T07:46:31;15.90;99.90
20125;DHT22;10223;50.862;4.360;2023-05-23T07:49:02;15.90;99.90
20125;DHT22;10223;50.862;4.360;2023-05-23T07:51:29;16.00;99.90
20125;DHT22;10223;50.862;4.360;2023-05-23T07:53:56;16.10;99.90
20125;DHT22;10223;50.862;4.360;2023-05-23T07:56:23;16.30;99.90
20125;DHT22;10223;50.862;4.360;2023-05-23T07:58:50;16.50;99.90
20125;DHT22;10223;50.862;4.360;2023-05-23T08:01:17;16.90;99.90
20125;DHT22;10223;50.862;4.360;2023-05-23T08:03:44;16.90;99.90
20125;DHT22;10223;50.862;4.360;2023-05-23T08:06:13;17.00;99.90
20125;DHT22;10223;50.862;4.360;2023-05-23T08:08:40;17.40;99.90
20125;DHT22;10223;50.862;4.360;2023-05-23T08:11:08;17.60;99.90
20125;DHT22;10223;50.862;4.360;2023-05-23T08:13:35;17.90;99.90
20125;DHT22;10223;50.862;4.360;2023-05-23T08:16:02;17.70;99.90
20125;DHT22;10223;50.862;4.360;2023-05-23T08:18:29;17.70;99.90
20125;DHT22;10223;50.862;4.360;2023-05-23T08:20:56;18.00;99.90
20125;DHT22;10223;50.862;4.360;2023-05-23T08:23:24;18.10;99.90
20125;DHT22;10223;50.862;4.360;2023-05-23T08:25:51;17.90;99.90
20125;DHT22;10223;50.862;4.360;2023-05-23T08:28:18;17.80;99.90
20125;DHT22;10223;50.862;4.360;2023-05-23T08:30:45;18.20;99.90
20125;DHT22;10223;50.862;4.360;2023-05-23T08:33:12;18.70;99.90
20125;DHT22;10223;50.862;4.360;2023-05-23T08:35:41;18.50;99.90
20125;DHT22;10223;50.862;4.360;2023-05-23T08:38:08;18.40;99.90
20125;DHT22;10223;50.862;4.360;2023-05-23T08:40:39;18.10;99.90
20125;DHT22;10223;50.862;4.360;2023-05-23T08:43:06;17.70;99.90
20125;DHT22;10223;50.862;4.360;2023-05-23T08:45:34;17.70;99.90
20125;DHT22;10223;50.862;4.360;2023-05-23T08:48:04;17.80;99.90
20125;DHT22;10223;50.862;4.360;2023-05-23T08:50:35;17.90;99.90
20125;DHT22;10223;50.862;4.360;2023-05-23T08:53:03;17.60;99.90
20125;DHT22;10223;50.862;4.360;2023-05-23T08:55:33;18.00;99.90
20125;DHT22;10223;50.862;4.360;2023-05-23T08:58:02;18.50;99.90
20125;DHT22;10223;50.862;4.360;2023-05-23T09:00:29;18.50;99.90
20125;DHT22;10223;50.862;4.360;2023-05-23T09:03:01;18.20;99.90
20125;DHT22;10223;50.862;4.360;2023-05-23T09:05:32;18.00;99.90
20125;DHT22;10223;50.862;4.360;2023-05-23T09:07:59;17.60;99.90
20125;DHT22;10223;50.862;4.360;2023-05-23T09:10:27;17.40;99.90
20125;DHT22;10223;50.862;4.360;2023-05-23T09:12:54;16.90;99.90
20125;DHT22;10223;50.862;4.360;2023-05-23T09:15:24;17.10;99.90
20125;DHT22;10223;50.862;4.360;2023-05-23T09:17:59;17.00;99.90
20125;DHT22;10223;50.862;4.360;2023-05-23T09:20:31;16.90;99.90
20125;DHT22;10223;50.862;4.360;2023-05-23T09:22:59;16.90;99.90
20125;DHT22;10223;50.862;4.360;2023-05-23T09:25:25;16.70;99.90
20125;DHT22;10223;50.862;4.360;2023-05-23T09:27:52;16.70;99.90
20125;DHT22;10223;50.862;4.360;2023-05-23T09:30:21;16.80;99.90
20125;DHT22;10223;50.862;4.360;2023-05-23T09:32:59;16.70;99.90
20125;DHT22;10223;50.862;4.360;2023-05-23T09:35:27;16.70;99.90
20125;DHT22;10223;50.862;4.360;2023-05-23T09:37:56;16.70;99.90
20125;DHT22;10223;50.862;4.360;2023-05-23T09:40:28;16.70;99.90
20125;DHT22;10223;50.862;4.360;2023-05-23T09:43:01;16.90;99.90
20125;DHT22;10223;50.862;4.360;2023-05-23T09:45:29;16.80;99.90
20125;DHT22;10223;50.862;4.360;2023-05-23T09:47:56;16.80;99.90
20125;DHT22;10223;50.862;4.360;2023-05-23T09:50:29;16.80;99.90
20125;DHT22;10223;50.862;4.360;2023-05-23T09:52:56;16.70;99.90
20125;DHT22;10223;50.862;4.360;2023-05-23T09:55:23;16.50;99.90
20125;DHT22;10223;50.862;4.360;2023-05-23T09:57:53;16.40;99.90
20125;DHT22;10223;50.862;4.360;2023-05-23T10:00:22;16.40;99.90
20125;DHT22;10223;50.862;4.360;2023-05-23T10:02:54;16.30;99.90
20125;DHT22;10223;50.862;4.360;2023-05-23T10:05:37;16.40;99.90
20125;DHT22;10223;50.862;4.360;2023-05-23T10:08:08;16.50;99.90
20125;DHT22;10223;50.862;4.360;2023-05-23T10:13:57;16.80;99.90
20125;DHT22;10223;50.862;4.360;2023-05-23T10:16:29;16.70;99.90
20125;DHT22;10223;50.862;4.360;2023-05-23T10:19:04;16.70;99.90
20125;DHT22;10223;50.862;4.360;2023-05-23T10:21:37;17.00;99.90
20125;DHT22;10223;50.862;4.360;2023-05-23T10:24:07;17.30;99.90
20125;DHT22;10223;50.862;4.360;2023-05-23T10:26:34;17.60;99.90
20125;DHT22;10223;50.862;4.360;2023-05-23T10:29:02;17.50;99.90
20125;DHT22;10223;50.862;4.360;2023-05-23T10:31:30;17.50;99.90
20125;DHT22;10223;50.862;4.360;2023-05-23T10:34:03;17.70;99.90
20125;DHT22;10223;50.862;4.360;2023-05-23T10:36:43;17.80;99.90
20125;DHT22;10223;50.862;4.360;2023-05-23T10:39:18;17.60;99.90
20125;DHT22;10223;50.862;4.360;2023-05-23T10:41:52;17.40;99.90
20125;DHT22;10223;50.862;4.360;2023-05-23T10:44:25;17.30;99.90
20125;DHT22;10223;50.862;4.360;2023-05-23T10:46:55;17.30;99.90
20125;DHT22;10223;50.862;4.360;2023-05-23T10:49:37;17.40;99.90
20125;DHT22;10223;50.862;4.360;2023-05-23T10:52:16;17.50;99.90
20125;DHT22;10223;50.862;4.360;2023-05-23T10:54:45;17.50;99.90
20125;DHT22;10223;50.862;4.360;2023-05-23T10:57:16;17.70;99.90
20125;DHT22;10223;50.862;4.360;2023-05-23T10:59:44;17.90;99.90
20125;DHT22;10223;50.862;4.360;2023-05-23T11:02:13;18.00;99.90
20125;DHT22;10223;50.862;4.360;2023-05-23T11:04:41;17.90;99.90
20125;DHT22;10223;50.862;4.360;2023-05-23T11:07:31;17.60;99.90
20125;DHT22;10223;50.862;4.360;2023-05-23T11:10:08;17.90;99.90
20125;DHT22;10223;50.862;4.360;2023-05-23T11:12:37;18.00;99.90
20125;DHT22;10223;50.862;4.360;2023-05-23T11:15:19;18.20;99.90
20125;DHT22;10223;50.862;4.360;2023-05-23T11:17:51;18.10;99.90
20125;DHT22;10223;50.862;4.360;2023-05-23T11:20:18;17.90;99.90
20125;DHT22;10223;50.862;4.360;2023-05-23T11:22:59;17.80;99.90
20125;DHT22;10223;50.862;4.360;2023-05-23T11:25:48;17.90;99.90
20125;DHT22;10223;50.862;4.360;2023-05-23T11:28:16;17.90;99.90
20125;DHT22;10223;50.862;4.360;2023-05-23T11:30:50;17.90;99.90
20125;DHT22;10223;50.862;4.360;2023-05-23T11:33:17;18.20;99.90
20125;DHT22;10223;50.862;4.360;2023-05-23T11:35:46;18.00;99.90
20125;DHT22;10223;50.862;4.360;2023-05-23T11:38:15;18.00;99.90
20125;DHT22;10223;50.862;4.360;2023-05-23T11:40:44;18.30;99.90
20125;DHT22;10223;50.862;4.360;2023-05-23T11:43:13;18.60;99.90
20125;DHT22;10223;50.862;4.360;2023-05-23T11:45:41;18.80;99.90
20125;DHT22;10223;50.862;4.360;2023-05-23T11:48:09;18.90;99.90
20125;DHT22;10223;50.862;4.360;2023-05-23T11:50:44;18.90;99.90
20125;DHT22;10223;50.862;4.360;2023-05-23T11:53:12;18.80;99.90
20125;DHT22;10223;50.862;4.360;2023-05-23T11:55:47;19.10;99.90
20125;DHT22;10223;50.862;4.360;2023-05-23T11:58:14;19.10;99.90
20125;DHT22;10223;50.862;4.360;2023-05-23T12:00:44;19.20;99.90
20125;DHT22;10223;50.862;4.360;2023-05-23T12:03:12;19.20;99.90
20125;DHT22;10223;50.862;4.360;2023-05-23T12:05:42;19.30;99.90
20125;DHT22;10223;50.862;4.360;2023-05-23T12:08:10;19.40;99.90
20125;DHT22;10223;50.862;4.360;2023-05-23T12:10:49;19.70;99.90
20125;DHT22;10223;50.862;4.360;2023-05-23T12:13:17;19.90;99.90
20125;DHT22;10223;50.862;4.360;2023-05-23T12:15:44;19.90;99.90
20125;DHT22;10223;50.862;4.360;2023-05-23T12:18:12;19.80;99.90
20125;DHT22;10223;50.862;4.360;2023-05-23T12:20:40;19.90;99.90
20125;DHT22;10223;50.862;4.360;2023-05-23T12:23:07;20.00;99.90
20125;DHT22;10223;50.862;4.360;2023-05-23T12:25:39;19.90;99.90
20125;DHT22;10223;50.862;4.360;2023-05-23T12:28:08;20.10;99.90
20125;DHT22;10223;50.862;4.360;2023-05-23T12:30:41;20.20;99.90
20125;DHT22;10223;50.862;4.360;2023-05-23T12:33:09;20.20;99.90
20125;DHT22;10223;50.862;4.360;2023-05-23T12:35:37;20.20;99.90
20125;DHT22;10223;50.862;4.360;2023-05-23T12:38:05;20.20;99.90
20125;DHT22;10223;50.862;4.360;2023-05-23T12:40:33;20.20;99.90
20125;DHT22;10223;50.862;4.360;2023-05-23T12:43:00;20.40;99.90
20125;DHT22;10223;50.862;4.360;2023-05-23T12:45:32;20.20;99.90
20125;DHT22;10223;50.862;4.360;2023-05-23T12:47:59;19.40;99.90
20125;DHT22;10223;50.862;4.360;2023-05-23T12:50:28;19.60;99.90
20125;DHT22;10223;50.862;4.360;2023-05-23T12:52:56;19.80;99.90
20125;DHT22;10223;50.862;4.360;2023-05-23T12:55:23;19.70;99.90
20125;DHT22;10223;50.862;4.360;2023-05-23T12:57:50;19.60;99.90
20125;DHT22;10223;50.862;4.360;2023-05-23T13:00:28;19.60;99.90
20125;DHT22;10223;50.862;4.360;2023-05-23T13:02:58;19.30;99.90
20125;DHT22;10223;50.862;4.360;2023-05-23T13:05:25;19.60;99.90
20125;DHT22;10223;50.862;4.360;2023-05-23T13:07:52;19.80;99.90
20125;DHT22;10223;50.862;4.360;2023-05-23T13:10:19;19.90;99.90
20125;DHT22;10223;50.862;4.360;2023-05-23T13:12:46;19.80;99.90
20125;DHT22;10223;50.862;4.360;2023-05-23T13:15:13;20.10;99.90
20125;DHT22;10223;50.862;4.360;2023-05-23T13:17:41;19.60;99.90
20125;DHT22;10223;50.862;4.360;2023-05-23T13:20:10;20.00;99.90
20125;DHT22;10223;50.862;4.360;2023-05-23T13:22:38;20.70;99.90
20125;DHT22;10223;50.862;4.360;2023-05-23T13:25:06;21.40;99.90
20125;DHT22;10223;50.862;4.360;2023-05-23T13:27:34;22.40;99.90
20125;DHT22;10223;50.862;4.360;2023-05-23T13:30:01;22.80;99.90
20125;DHT22;10223;50.862;4.360;2023-05-23T13:32:28;22.70;99.90
20125;DHT22;10223;50.862;4.360;2023-05-23T13:34:56;21.90;99.90
20125;DHT22;10223;50.862;4.360;2023-05-23T13:37:24;21.50;99.90
20125;DHT22;10223;50.862;4.360;2023-05-23T13:39:54;22.00;99.90
20125;DHT22;10223;50.862;4.360;2023-05-23T13:42:21;22.20;99.90
20125;DHT22;10223;50.862;4.360;2023-05-23T13:44:48;21.90;99.90
20125;DHT22;10223;50.862;4.360;2023-05-23T13:47:17;21.80;99.90
20125;DHT22;10223;50.862;4.360;2023-05-23T13:49:46;20.40;99.90
20125;DHT22;10223;50.862;4.360;2023-05-23T13:52:14;20.90;99.90
20125;DHT22;10223;50.862;4.360;2023-05-23T13:54:43;21.60;99.90
20125;DHT22;10223;50.862;4.360;2023-05-23T13:57:10;21.70;99.90
20125;DHT22;10223;50.862;4.360;2023-05-23T13:59:37;21.90;99.90
20125;DHT22;10223;50.862;4.360;2023-05-23T14:02:05;21.90;99.90
20125;DHT22;10223;50.862;4.360;2023-05-23T14:04:32;22.80;99.90
20125;DHT22;10223;50.862;4.360;2023-05-23T14:06:59;23.70;99.90
20125;DHT22;10223;50.862;4.360;2023-05-23T14:09:26;24.70;99.90
20125;DHT22;10223;50.862;4.360;2023-05-23T14:11:55;25.40;99.90
20125;DHT22;10223;50.862;4.360;2023-05-23T14:14:22;25.70;99.90
20125;DHT22;10223;50.862;4.360;2023-05-23T14:16:49;26.50;99.90
20125;DHT22;10223;50.862;4.360;2023-05-23T14:19:16;25.60;99.90
20125;DHT22;10223;50.862;4.360;2023-05-23T14:21:43;25.20;99.90
20125;DHT22;10223;50.862;4.360;2023-05-23T14:24:10;24.20;99.90
20125;DHT22;10223;50.862;4.360;2023-05-23T14:26:37;23.60;99.90
20125;DHT22;10223;50.862;4.360;2023-05-23T14:29:06;22.90;99.90
20125;DHT22;10223;50.862;4.360;2023-05-23T14:31:33;23.20;99.90
20125;DHT22;10223;50.862;4.360;2023-05-23T14:34:00;23.90;99.90
20125;DHT22;10223;50.862;4.360;2023-05-23T14:36:27;24.60;99.90
20125;DHT22;10223;50.862;4.360;2023-05-23T14:38:54;24.40;99.90
20125;DHT22;10223;50.862;4.360;2023-05-23T14:41:21;24.80;99.90
20125;DHT22;10223;50.862;4.360;2023-05-23T14:43:48;25.30;99.90
20125;DHT22;10223;50.862;4.360;2023-05-23T14:46:17;25.50;99.90
20125;DHT22;10223;50.862;4.360;2023-05-23T14:48:44;24.90;99.90
20125;DHT22;10223;50.862;4.360;2023-05-23T14:51:11;25.10;99.90
20125;DHT22;10223;50.862;4.360;2023-05-23T14:53:39;24.40;99.90
20125;DHT22;10223;50.862;4.360;2023-05-23T14:56:06;23.10;99.90
20125;DHT22;10223;50.862;4.360;2023-05-23T14:58:33;23.00;99.90
20125;DHT22;10223;50.862;4.360;2023-05-23T15:01:00;23.20;99.90
20125;DHT22;10223;50.862;4.360;2023-05-23T15:03:28;24.10;99.90
20125;DHT22;10223;50.862;4.360;2023-05-23T15:05:56;22.90;99.90
20125;DHT22;10223;50.862;4.360;2023-05-23T15:08:23;22.50;99.90
20125;DHT22;10223;50.862;4.360;2023-05-23T15:10:50;23.30;99.90
20125;DHT22;10223;50.862;4.360;2023-05-23T15:13:17;23.80;99.90
20125;DHT22;10223;50.862;4.360;2023-05-23T15:15:44;23.30;99.90
20125;DHT22;10223;50.862;4.360;2023-05-23T15:18:12;23.50;99.90
20125;DHT22;10223;50.862;4.360;2023-05-23T15:20:40;24.20;99.90
20125;DHT22;10223;50.862;4.360;2023-05-23T15:23:07;24.20;99.90
20125;DHT22;10223;50.862;4.360;2023-05-23T15:25:37;23.80;99.90
20125;DHT22;10223;50.862;4.360;2023-05-23T15:28:04;23.10;99.90
20125;DHT22;10223;50.862;4.360;2023-05-23T15:30:31;22.70;99.90
20125;DHT22;10223;50.862;4.360;2023-05-23T15:32:57;22.10;99.90
20125;DHT22;10223;50.862;4.360;2023-05-23T15:35:24;21.80;99.90
20125;DHT22;10223;50.862;4.360;2023-05-23T15:37:53;21.90;99.90
20125;DHT22;10223;50.862;4.360;2023-05-23T15:40:20;21.60;99.90
20125;DHT22;10223;50.862;4.360;2023-05-23T15:42:47;21.70;99.90